sensor_id;sensor_type;location;lat;lon;timestamp;P1;durP1;ratioP1;P2;durP2;ratioP2
12314;SDS011;23886;46.614;14.276;2023-04-01T00:00:32;1.70;;;1.60;;
12314;SDS011;23886;46.614;14.276;2023-04-01T00:02:59;3.03;;;1.67;;
12314;SDS011;23886;46.614;14.276;2023-04-01T00:05:26;2.40;;;1.70;;
12314;SDS011;23886;46.614;14.276;2023-04-01T00:07:53;1.87;;;1.57;;
12314;SDS011;23886;46.614;14.276;2023-04-01T00:10:22;2.13;;;1.57;;
12314;SDS011;23886;46.614;14.276;2023-04-01T00:12:49;1.80;;;1.70;;
12314;SDS011;23886;46.614;14.276;2023-04-01T00:15:16;1.80;;;1.70;;
12314;SDS011;23886;46.614;14.276;2023-04-01T00:17:43;2.80;;;1.70;;
12314;SDS011;23886;46.614;14.276;2023-04-01T00:20:10;1.57;;;1.47;;
12314;SDS011;23886;46.614;14.276;2023-04-01T00:22:39;1.70;;;1.60;;
12314;SDS011;23886;46.614;14.276;2023-04-01T00:25:06;2.00;;;1.70;;
12314;SDS011;23886;46.614;14.276;2023-04-01T00:27:35;2.13;;;1.60;;
12314;SDS011;23886;46.614;14.276;2023-04-01T00:30:02;1.80;;;1.70;;
12314;SDS011;23886;46.614;14.276;2023-04-01T00:32:30;1.73;;;1.63;;
12314;SDS011;23886;46.614;14.276;2023-04-01T00:34:57;1.80;;;1.70;;
12314;SDS011;23886;46.614;14.276;2023-04-01T00:37:24;1.87;;;1.77;;
12314;SDS011;23886;46.614;14.276;2023-04-01T00:39:52;1.93;;;1.80;;
12314;SDS011;23886;46.614;14.276;2023-04-01T00:42:19;3.17;;;2.00;;
12314;SDS011;23886;46.614;14.276;2023-04-01T00:44:49;2.10;;;1.90;;
12314;SDS011;23886;46.614;14.276;2023-04-01T00:47:18;2.10;;;1.90;;
12314;SDS011;23886;46.614;14.276;2023-04-01T00:49:46;1.90;;;1.80;;
12314;SDS011;23886;46.614;14.276;2023-04-01T00:52:17;2.00;;;1.90;;
12314;SDS011;23886;46.614;14.276;2023-04-01T00:54:49;3.27;;;2.30;;
12314;SDS011;23886;46.614;14.276;2023-04-01T00:57:23;3.13;;;2.00;;
12314;SDS011;23886;46.614;14.276;2023-04-01T00:59:54;2.87;;;2.10;;
12314;SDS011;23886;46.614;14.276;2023-04-01T01:02:22;2.00;;;1.90;;
12314;SDS011;23886;46.614;14.276;2023-04-01T01:04:49;2.40;;;2.00;;
12314;SDS011;23886;46.614;14.276;2023-04-01T01:07:19;2.23;;;1.90;;
12314;SDS011;23886;46.614;14.276;2023-04-01T01:09:55;2.07;;;1.97;;
12314;SDS011;23886;46.614;14.276;2023-04-01T01:12:30;2.70;;;2.30;;
12314;SDS011;23886;46.614;14.276;2023-04-01T01:15:05;2.30;;;2.00;;
12314;SDS011;23886;46.614;14.276;2023-04-01T01:17:40;3.43;;;2.20;;
12314;SDS011;23886;46.614;14.276;2023-04-01T01:23:23;2.20;;;1.90;;
12314;SDS011;23886;46.614;14.276;2023-04-01T01:26:19;2.40;;;2.20;;
12314;SDS011;23886;46.614;14.276;2023-04-01T01:29:22;2.10;;;1.90;;
12314;SDS011;23886;46.614;14.276;2023-04-01T01:32:17;2.97;;;1.80;;
12314;SDS011;23886;46.614;14.276;2023-04-01T01:34:53;2.57;;;2.20;;
12314;SDS011;23886;46.614;14.276;2023-04-01T01:37:25;2.90;;;2.20;;
12314;SDS011;23886;46.614;14.276;2023-04-01T01:39:55;2.60;;;2.40;;
12314;SDS011;23886;46.614;14.276;2023-04-01T01:42:25;3.10;;;2.40;;
12314;SDS011;23886;46.614;14.276;2023-04-01T01:44:55;2.50;;;2.30;;
12314;SDS011;23886;46.614;14.276;2023-04-01T01:47:25;3.00;;;2.60;;
12314;SDS011;23886;46.614;14.276;2023-04-01T01:49:53;2.53;;;2.33;;
12314;SDS011;23886;46.614;14.276;2023-04-01T01:52:21;3.10;;;2.20;;
12314;SDS011;23886;46.614;14.276;2023-04-01T01:54:51;3.40;;;2.10;;
12314;SDS011;23886;46.614;14.276;2023-04-01T01:57:20;3.77;;;3.03;;
12314;SDS011;23886;46.614;14.276;2023-04-01T01:59:52;3.03;;;2.80;;
12314;SDS011;23886;46.614;14.276;2023-04-01T02:02:23;2.43;;;2.23;;
12314;SDS011;23886;46.614;14.276;2023-04-01T02:04:52;3.97;;;2.43;;
12314;SDS011;23886;46.614;14.276;2023-04-01T02:07:21;2.93;;;2.47;;
12314;SDS011;23886;46.614;14.276;2023-04-01T02:09:53;3.07;;;2.60;;
12314;SDS011;23886;46.614;14.276;2023-04-01T02:12:20;3.10;;;2.90;;
12314;SDS011;23886;46.614;14.276;2023-04-01T02:14:51;3.60;;;3.30;;
12314;SDS011;23886;46.614;14.276;2023-04-01T02:17:21;4.13;;;3.73;;
12314;SDS011;23886;46.614;14.276;2023-04-01T02:19:52;3.50;;;3.20;;
12314;SDS011;23886;46.614;14.276;2023-04-01T02:22:23;3.40;;;3.10;;
12314;SDS011;23886;46.614;14.276;2023-04-01T02:24:53;3.90;;;3.60;;
12314;SDS011;23886;46.614;14.276;2023-04-01T02:27:24;3.73;;;3.43;;
12314;SDS011;23886;46.614;14.276;2023-04-01T02:29:52;4.53;;;4.13;;
12314;SDS011;23886;46.614;14.276;2023-04-01T02:32:19;3.87;;;3.50;;
12314;SDS011;23886;46.614;14.276;2023-04-01T02:34:47;3.60;;;3.30;;
12314;SDS011;23886;46.614;14.276;2023-04-01T02:37:15;3.07;;;2.67;;
12314;SDS011;23886;46.614;14.276;2023-04-01T02:39:44;3.23;;;2.93;;
12314;SDS011;23886;46.614;14.276;2023-04-01T02:42:11;3.63;;;3.33;;
12314;SDS011;23886;46.614;14.276;2023-04-01T02:44:39;4.50;;;4.10;;
12314;SDS011;23886;46.614;14.276;2023-04-01T02:47:06;3.90;;;3.60;;
12314;SDS011;23886;46.614;14.276;2023-04-01T02:49:33;3.80;;;3.50;;
12314;SDS011;23886;46.614;14.276;2023-04-01T02:52:00;3.67;;;3.37;;
12314;SDS011;23886;46.614;14.276;2023-04-01T02:54:27;3.83;;;3.53;;
12314;SDS011;23886;46.614;14.276;2023-04-01T02:56:56;3.53;;;3.17;;
12314;SDS011;23886;46.614;14.276;2023-04-01T02:59:23;3.57;;;3.27;;
12314;SDS011;23886;46.614;14.276;2023-04-01T03:01:50;3.73;;;3.33;;
12314;SDS011;23886;46.614;14.276;2023-04-01T03:04:17;3.00;;;2.80;;
12314;SDS011;23886;46.614;14.276;2023-04-01T03:06:44;3.00;;;2.70;;
12314;SDS011;23886;46.614;14.276;2023-04-01T03:09:10;2.70;;;2.50;;
12314;SDS011;23886;46.614;14.276;2023-04-01T03:11:37;2.97;;;2.77;;
12314;SDS011;23886;46.614;14.276;2023-04-01T03:14:07;2.60;;;2.40;;
12314;SDS011;23886;46.614;14.276;2023-04-01T03:16:34;2.73;;;2.53;;
12314;SDS011;23886;46.614;14.276;2023-04-01T03:19:01;2.50;;;2.30;;
12314;SDS011;23886;46.614;14.276;2023-04-01T03:21:28;2.47;;;2.27;;
12314;SDS011;23886;46.614;14.276;2023-04-01T03:23:55;2.70;;;2.50;;
12314;SDS011;23886;46.614;14.276;2023-04-01T03:26:22;2.10;;;2.00;;
12314;SDS011;23886;46.614;14.276;2023-04-01T03:28:49;2.73;;;2.30;;
12314;SDS011;23886;46.614;14.276;2023-04-01T03:31:17;2.30;;;2.10;;
12314;SDS011;23886;46.614;14.276;2023-04-01T03:33:44;2.17;;;2.07;;
12314;SDS011;23886;46.614;14.276;2023-04-01T03:36:11;3.57;;;2.30;;
12314;SDS011;23886;46.614;14.276;2023-04-01T03:38:39;2.33;;;2.13;;
12314;SDS011;23886;46.614;14.276;2023-04-01T03:41:06;2.70;;;2.50;;
12314;SDS011;23886;46.614;14.276;2023-04-01T03:43:37;2.80;;;2.60;;
12314;SDS011;23886;46.614;14.276;2023-04-01T03:46:04;2.70;;;2.50;;
12314;SDS011;23886;46.614;14.276;2023-04-01T03:48:32;3.60;;;2.93;;
12314;SDS011;23886;46.614;14.276;2023-04-01T03:51:00;3.23;;;2.97;;
12314;SDS011;23886;46.614;14.276;2023-04-01T03:53:27;3.10;;;2.80;;
12314;SDS011;23886;46.614;14.276;2023-04-01T03:55:54;2.80;;;2.60;;
12314;SDS011;23886;46.614;14.276;2023-04-01T03:58:21;3.33;;;3.03;;
12314;SDS011;23886;46.614;14.276;2023-04-01T04:00:48;4.30;;;3.90;;
12314;SDS011;23886;46.614;14.276;2023-04-01T04:03:15;4.30;;;3.27;;
12314;SDS011;23886;46.614;14.276;2023-04-01T04:05:47;3.70;;;3.40;;
12314;SDS011;23886;46.614;14.276;2023-04-01T04:08:14;4.43;;;3.90;;
12314;SDS011;23886;46.614;14.276;2023-04-01T04:10:43;4.50;;;4.10;;
12314;SDS011;23886;46.614;14.276;2023-04-01T04:13:11;3.87;;;3.57;;
12314;SDS011;23886;46.614;14.276;2023-04-01T04:15:38;4.13;;;3.83;;
12314;SDS011;23886;46.614;14.276;2023-04-01T04:18:05;4.20;;;3.83;;
12314;SDS011;23886;46.614;14.276;2023-04-01T04:20:32;4.33;;;4.03;;
12314;SDS011;23886;46.614;14.276;2023-04-01T04:23:01;4.47;;;4.07;;
12314;SDS011;23886;46.614;14.276;2023-04-01T04:25:28;3.50;;;3.30;;
12314;SDS011;23886;46.614;14.276;2023-04-01T04:27:55;3.73;;;3.43;;
12314;SDS011;23886;46.614;14.276;2023-04-01T04:30:22;5.07;;;4.53;;
12314;SDS011;23886;46.614;14.276;2023-04-01T04:32:49;7.23;;;6.53;;
12314;SDS011;23886;46.614;14.276;2023-04-01T04:35:16;8.83;;;8.03;;
12314;SDS011;23886;46.614;14.276;2023-04-01T04:37:43;7.20;;;6.60;;
12314;SDS011;23886;46.614;14.276;2023-04-01T04:40:11;5.33;;;4.93;;
12314;SDS011;23886;46.614;14.276;2023-04-01T04:42:38;8.37;;;6.00;;
12314;SDS011;23886;46.614;14.276;2023-04-01T04:45:06;6.93;;;6.23;;
12314;SDS011;23886;46.614;14.276;2023-04-01T04:47:33;7.17;;;6.40;;
12314;SDS011;23886;46.614;14.276;2023-04-01T04:50:00;6.50;;;5.90;;
12314;SDS011;23886;46.614;14.276;2023-04-01T04:52:27;6.20;;;5.70;;
12314;SDS011;23886;46.614;14.276;2023-04-01T04:54:54;5.57;;;5.07;;
12314;SDS011;23886;46.614;14.276;2023-04-01T04:57:22;7.20;;;6.50;;
12314;SDS011;23886;46.614;14.276;2023-04-01T04:59:49;7.23;;;6.07;;
12314;SDS011;23886;46.614;14.276;2023-04-01T05:02:16;7.47;;;6.87;;
12314;SDS011;23886;46.614;14.276;2023-04-01T05:04:43;9.40;;;8.60;;
12314;SDS011;23886;46.614;14.276;2023-04-01T05:07:10;7.37;;;6.77;;
12314;SDS011;23886;46.614;14.276;2023-04-01T05:09:37;8.97;;;8.20;;
12314;SDS011;23886;46.614;14.276;2023-04-01T05:12:04;7.80;;;7.10;;
12314;SDS011;23886;46.614;14.276;2023-04-01T05:14:33;7.30;;;6.60;;
12314;SDS011;23886;46.614;14.276;2023-04-01T05:17:00;6.90;;;6.33;;
12314;SDS011;23886;46.614;14.276;2023-04-01T05:19:27;6.70;;;6.17;;
12314;SDS011;23886;46.614;14.276;2023-04-01T05:21:54;7.00;;;6.30;;
12314;SDS011;23886;46.614;14.276;2023-04-01T05:24:21;6.97;;;5.97;;
12314;SDS011;23886;46.614;14.276;2023-04-01T05:26:48;6.33;;;5.73;;
12314;SDS011;23886;46.614;14.276;2023-04-01T05:29:15;6.30;;;5.80;;
12314;SDS011;23886;46.614;14.276;2023-04-01T05:31:43;6.47;;;5.97;;
12314;SDS011;23886;46.614;14.276;2023-04-01T05:34:10;6.70;;;6.10;;
12314;SDS011;23886;46.614;14.276;2023-04-01T05:36:37;6.80;;;6.20;;
12314;SDS011;23886;46.614;14.276;2023-04-01T05:39:04;6.67;;;6.17;;
12314;SDS011;23886;46.614;14.276;2023-04-01T05:41:31;6.40;;;5.80;;
12314;SDS011;23886;46.614;14.276;2023-04-01T05:44:01;6.00;;;5.50;;
12314;SDS011;23886;46.614;14.276;2023-04-01T05:46:28;6.73;;;6.13;;
12314;SDS011;23886;46.614;14.276;2023-04-01T05:48:59;7.03;;;6.43;;
12314;SDS011;23886;46.614;14.276;2023-04-01T05:51:27;7.20;;;6.50;;
12314;SDS011;23886;46.614;14.276;2023-04-01T05:53:54;7.30;;;6.70;;
12314;SDS011;23886;46.614;14.276;2023-04-01T05:56:21;7.23;;;6.63;;
12314;SDS011;23886;46.614;14.276;2023-04-01T05:58:50;6.67;;;6.07;;
12314;SDS011;23886;46.614;14.276;2023-04-01T06:01:21;6.37;;;5.77;;
12314;SDS011;23886;46.614;14.276;2023-04-01T06:03:48;6.47;;;5.97;;
12314;SDS011;23886;46.614;14.276;2023-04-01T06:06:20;6.93;;;6.43;;
12314;SDS011;23886;46.614;14.276;2023-04-01T06:08:52;6.83;;;6.33;;
12314;SDS011;23886;46.614;14.276;2023-04-01T06:11:23;7.83;;;7.13;;
12314;SDS011;23886;46.614;14.276;2023-04-01T06:14:10;5.90;;;5.50;;
12314;SDS011;23886;46.614;14.276;2023-04-01T06:16:47;6.53;;;6.03;;
12314;SDS011;23886;46.614;14.276;2023-04-01T06:19:27;6.27;;;5.77;;
12314;SDS011;23886;46.614;14.276;2023-04-01T06:31:01;5.10;;;4.70;;
12314;SDS011;23886;46.614;14.276;2023-04-01T06:33:44;5.10;;;4.70;;
12314;SDS011;23886;46.614;14.276;2023-04-01T06:36:32;5.10;;;4.70;;
12314;SDS011;23886;46.614;14.276;2023-04-01T06:39:21;5.00;;;4.60;;
12314;SDS011;23886;46.614;14.276;2023-04-01T06:42:22;5.57;;;5.10;;
12314;SDS011;23886;46.614;14.276;2023-04-01T06:45:04;4.90;;;4.50;;
12314;SDS011;23886;46.614;14.276;2023-04-01T06:47:44;4.60;;;4.20;;
12314;SDS011;23886;46.614;14.276;2023-04-01T06:50:22;4.60;;;4.20;;
12314;SDS011;23886;46.614;14.276;2023-04-01T06:52:55;4.30;;;3.90;;
12314;SDS011;23886;46.614;14.276;2023-04-01T06:55:29;4.63;;;4.17;;
12314;SDS011;23886;46.614;14.276;2023-04-01T06:58:03;4.40;;;4.03;;
12314;SDS011;23886;46.614;14.276;2023-04-01T07:00:33;4.40;;;4.10;;
12314;SDS011;23886;46.614;14.276;2023-04-01T07:03:08;4.00;;;3.70;;
12314;SDS011;23886;46.614;14.276;2023-04-01T07:05:43;4.30;;;3.97;;
12314;SDS011;23886;46.614;14.276;2023-04-01T07:08:11;4.10;;;3.80;;
12314;SDS011;23886;46.614;14.276;2023-04-01T07:10:43;3.80;;;3.50;;
12314;SDS011;23886;46.614;14.276;2023-04-01T07:13:15;4.03;;;3.73;;
12314;SDS011;23886;46.614;14.276;2023-04-01T07:15:54;4.10;;;3.80;;
12314;SDS011;23886;46.614;14.276;2023-04-01T07:18:34;4.83;;;3.80;;
12314;SDS011;23886;46.614;14.276;2023-04-01T07:21:09;4.13;;;3.80;;
12314;SDS011;23886;46.614;14.276;2023-04-01T07:23:42;3.83;;;3.50;;
12314;SDS011;23886;46.614;14.276;2023-04-01T07:26:15;3.60;;;3.30;;
12314;SDS011;23886;46.614;14.276;2023-04-01T07:28:45;3.50;;;3.20;;
12314;SDS011;23886;46.614;14.276;2023-04-01T07:31:15;3.20;;;2.90;;
12314;SDS011;23886;46.614;14.276;2023-04-01T07:33:54;3.10;;;2.90;;
12314;SDS011;23886;46.614;14.276;2023-04-01T07:36:31;3.67;;;3.40;;
12314;SDS011;23886;46.614;14.276;2023-04-01T07:39:05;3.60;;;3.30;;
12314;SDS011;23886;46.614;14.276;2023-04-01T07:41:45;3.33;;;3.00;;
12314;SDS011;23886;46.614;14.276;2023-04-01T07:44:20;3.10;;;2.90;;
12314;SDS011;23886;46.614;14.276;2023-04-01T07:47:01;3.00;;;2.80;;
12314;SDS011;23886;46.614;14.276;2023-04-01T07:49:37;2.70;;;2.50;;
12314;SDS011;23886;46.614;14.276;2023-04-01T07:52:13;3.00;;;2.80;;
12314;SDS011;23886;46.614;14.276;2023-04-01T07:54:48;3.00;;;2.80;;
12314;SDS011;23886;46.614;14.276;2023-04-01T07:57:22;2.83;;;2.57;;
12314;SDS011;23886;46.614;14.276;2023-04-01T07:59:56;2.87;;;2.67;;
12314;SDS011;23886;46.614;14.276;2023-04-01T08:02:34;3.40;;;3.20;;
12314;SDS011;23886;46.614;14.276;2023-04-01T08:05:14;3.33;;;3.13;;
12314;SDS011;23886;46.614;14.276;2023-04-01T08:07:48;3.70;;;3.30;;
12314;SDS011;23886;46.614;14.276;2023-04-01T08:10:22;3.07;;;2.87;;
12314;SDS011;23886;46.614;14.276;2023-04-01T08:12:59;3.63;;;3.33;;
12314;SDS011;23886;46.614;14.276;2023-04-01T08:15:34;3.53;;;3.17;;
12314;SDS011;23886;46.614;14.276;2023-04-01T08:18:11;4.40;;;3.30;;
12314;SDS011;23886;46.614;14.276;2023-04-01T08:20:47;3.90;;;3.60;;
12314;SDS011;23886;46.614;14.276;2023-04-01T08:23:18;3.80;;;3.40;;
12314;SDS011;23886;46.614;14.276;2023-04-01T08:25:49;3.30;;;3.00;;
12314;SDS011;23886;46.614;14.276;2023-04-01T08:28:23;3.30;;;3.00;;
12314;SDS011;23886;46.614;14.276;2023-04-01T08:30:56;2.80;;;2.60;;
12314;SDS011;23886;46.614;14.276;2023-04-01T08:33:29;5.07;;;2.50;;
12314;SDS011;23886;46.614;14.276;2023-04-01T08:35:59;2.97;;;2.67;;
12314;SDS011;23886;46.614;14.276;2023-04-01T08:38:32;2.73;;;2.50;;
12314;SDS011;23886;46.614;14.276;2023-04-01T08:44:22;2.80;;;2.60;;
12314;SDS011;23886;46.614;14.276;2023-04-01T08:53:19;2.20;;;2.10;;
12314;SDS011;23886;46.614;14.276;2023-04-01T08:55:56;2.23;;;2.03;;
12314;SDS011;23886;46.614;14.276;2023-04-01T08:58:37;2.10;;;2.00;;
12314;SDS011;23886;46.614;14.276;2023-04-01T09:01:20;2.53;;;2.33;;
12314;SDS011;23886;46.614;14.276;2023-04-01T09:07:00;3.47;;;3.17;;
12314;SDS011;23886;46.614;14.276;2023-04-01T09:09:52;3.90;;;2.73;;
12314;SDS011;23886;46.614;14.276;2023-04-01T09:18:32;2.17;;;2.03;;
12314;SDS011;23886;46.614;14.276;2023-04-01T09:21:24;2.60;;;2.40;;
12314;SDS011;23886;46.614;14.276;2023-04-01T09:27:28;2.40;;;2.20;;
12314;SDS011;23886;46.614;14.276;2023-04-01T09:30:18;2.70;;;2.50;;
12314;SDS011;23886;46.614;14.276;2023-04-01T09:36:07;3.00;;;2.50;;
12314;SDS011;23886;46.614;14.276;2023-04-01T09:38:49;2.50;;;2.30;;
12314;SDS011;23886;46.614;14.276;2023-04-01T09:41:27;2.13;;;1.97;;
12314;SDS011;23886;46.614;14.276;2023-04-01T09:44:03;2.40;;;2.20;;
12314;SDS011;23886;46.614;14.276;2023-04-01T09:46:34;4.00;;;2.10;;
12314;SDS011;23886;46.614;14.276;2023-04-01T09:49:23;2.17;;;2.00;;
12314;SDS011;23886;46.614;14.276;2023-04-01T09:52:07;1.90;;;1.80;;
12314;SDS011;23886;46.614;14.276;2023-04-01T09:54:52;2.87;;;2.07;;
12314;SDS011;23886;46.614;14.276;2023-04-01T10:00:39;2.63;;;2.13;;
12314;SDS011;23886;46.614;14.276;2023-04-01T10:06:48;2.00;;;1.90;;
12314;SDS011;23886;46.614;14.276;2023-04-01T10:12:54;1.83;;;1.73;;
12314;SDS011;23886;46.614;14.276;2023-04-01T10:15:34;1.83;;;1.73;;
12314;SDS011;23886;46.614;14.276;2023-04-01T10:21:25;2.03;;;1.87;;
12314;SDS011;23886;46.614;14.276;2023-04-01T10:27:16;1.70;;;1.60;;
12314;SDS011;23886;46.614;14.276;2023-04-01T10:42:28;1.73;;;1.63;;
12314;SDS011;23886;46.614;14.276;2023-04-01T10:45:35;2.10;;;1.60;;
12314;SDS011;23886;46.614;14.276;2023-04-01T10:51:51;3.53;;;1.50;;
12314;SDS011;23886;46.614;14.276;2023-04-01T10:54:55;1.90;;;1.60;;
12314;SDS011;23886;46.614;14.276;2023-04-01T10:57:54;2.17;;;1.60;;
12314;SDS011;23886;46.614;14.276;2023-04-01T11:00:57;1.73;;;1.60;;
12314;SDS011;23886;46.614;14.276;2023-04-01T11:04:02;1.70;;;1.60;;
12314;SDS011;23886;46.614;14.276;2023-04-01T11:07:22;2.03;;;1.93;;
12314;SDS011;23886;46.614;14.276;2023-04-01T11:10:23;2.20;;;2.00;;
12314;SDS011;23886;46.614;14.276;2023-04-01T11:19:28;2.10;;;1.90;;
12314;SDS011;23886;46.614;14.276;2023-04-01T11:22:33;2.20;;;2.00;;
12314;SDS011;23886;46.614;14.276;2023-04-01T11:25:20;2.30;;;1.93;;
12314;SDS011;23886;46.614;14.276;2023-04-01T11:31:10;2.20;;;1.80;;
12314;SDS011;23886;46.614;14.276;2023-04-01T11:33:48;1.83;;;1.70;;
12314;SDS011;23886;46.614;14.276;2023-04-01T11:36:20;1.90;;;1.70;;
12314;SDS011;23886;46.614;14.276;2023-04-01T11:39:05;2.00;;;1.70;;
12314;SDS011;23886;46.614;14.276;2023-04-01T11:41:48;2.90;;;1.70;;
12314;SDS011;23886;46.614;14.276;2023-04-01T11:44:20;2.10;;;1.90;;
12314;SDS011;23886;46.614;14.276;2023-04-01T11:46:55;2.07;;;1.63;;
12314;SDS011;23886;46.614;14.276;2023-04-01T11:49:33;1.70;;;1.60;;
12314;SDS011;23886;46.614;14.276;2023-04-01T11:52:25;1.63;;;1.53;;
12314;SDS011;23886;46.614;14.276;2023-04-01T11:55:24;2.23;;;1.80;;
12314;SDS011;23886;46.614;14.276;2023-04-01T12:01:07;1.60;;;1.50;;
12314;SDS011;23886;46.614;14.276;2023-04-01T12:03:51;1.60;;;1.50;;
12314;SDS011;23886;46.614;14.276;2023-04-01T12:06:37;2.17;;;1.73;;
12314;SDS011;23886;46.614;14.276;2023-04-01T12:09:16;2.37;;;1.80;;
12314;SDS011;23886;46.614;14.276;2023-04-01T12:11:54;2.10;;;1.90;;
12314;SDS011;23886;46.614;14.276;2023-04-01T12:14:39;1.63;;;1.50;;
12314;SDS011;23886;46.614;14.276;2023-04-01T12:17:18;2.53;;;1.63;;
12314;SDS011;23886;46.614;14.276;2023-04-01T12:19:57;2.10;;;1.50;;
12314;SDS011;23886;46.614;14.276;2023-04-01T12:22:30;2.10;;;1.90;;
12314;SDS011;23886;46.614;14.276;2023-04-01T12:25:27;2.27;;;1.83;;
12314;SDS011;23886;46.614;14.276;2023-04-01T12:28:06;1.40;;;1.30;;
12314;SDS011;23886;46.614;14.276;2023-04-01T12:30:58;2.37;;;1.33;;
12314;SDS011;23886;46.614;14.276;2023-04-01T12:36:26;1.40;;;1.30;;
12314;SDS011;23886;46.614;14.276;2023-04-01T12:41:59;2.17;;;1.30;;
12314;SDS011;23886;46.614;14.276;2023-04-01T12:44:37;1.90;;;1.70;;
12314;SDS011;23886;46.614;14.276;2023-04-01T12:47:25;2.30;;;1.37;;
12314;SDS011;23886;46.614;14.276;2023-04-01T12:53:07;2.13;;;1.40;;
12314;SDS011;23886;46.614;14.276;2023-04-01T12:55:45;1.20;;;1.10;;
12314;SDS011;23886;46.614;14.276;2023-04-01T13:01:25;1.70;;;1.33;;
12314;SDS011;23886;46.614;14.276;2023-04-01T13:04:05;1.50;;;1.40;;
12314;SDS011;23886;46.614;14.276;2023-04-01T13:07:07;1.70;;;1.40;;
12314;SDS011;23886;46.614;14.276;2023-04-01T13:09:51;1.37;;;1.20;;
12314;SDS011;23886;46.614;14.276;2023-04-01T13:12:29;1.97;;;1.27;;
12314;SDS011;23886;46.614;14.276;2023-04-01T13:15:26;3.10;;;1.40;;
12314;SDS011;23886;46.614;14.276;2023-04-01T13:18:03;2.30;;;1.30;;
12314;SDS011;23886;46.614;14.276;2023-04-01T13:20:48;1.20;;;1.10;;
12314;SDS011;23886;46.614;14.276;2023-04-01T13:23:24;1.50;;;1.40;;
12314;SDS011;23886;46.614;14.276;2023-04-01T13:26:09;1.50;;;1.17;;
12314;SDS011;23886;46.614;14.276;2023-04-01T13:28:45;1.40;;;1.30;;
12314;SDS011;23886;46.614;14.276;2023-04-01T13:31:25;2.20;;;1.40;;
12314;SDS011;23886;46.614;14.276;2023-04-01T13:34:03;1.30;;;1.20;;
12314;SDS011;23886;46.614;14.276;2023-04-01T13:36:47;1.70;;;1.27;;
12314;SDS011;23886;46.614;14.276;2023-04-01T13:39:29;2.73;;;1.10;;
12314;SDS011;23886;46.614;14.276;2023-04-01T13:42:16;1.70;;;1.20;;
12314;SDS011;23886;46.614;14.276;2023-04-01T13:44:48;1.67;;;1.23;;
12314;SDS011;23886;46.614;14.276;2023-04-01T13:47:33;1.30;;;1.10;;
12314;SDS011;23886;46.614;14.276;2023-04-01T13:50:35;1.08;;;1.08;;
12314;SDS011;23886;46.614;14.276;2023-04-01T13:53:25;2.15;;;1.02;;
12314;SDS011;23886;46.614;14.276;2023-04-01T13:56:16;1.30;;;1.15;;
12314;SDS011;23886;46.614;14.276;2023-04-01T13:58:55;1.73;;;1.20;;
12314;SDS011;23886;46.614;14.276;2023-04-01T14:01:40;1.15;;;1.05;;
12314;SDS011;23886;46.614;14.276;2023-04-01T14:04:23;1.20;;;1.10;;
12314;SDS011;23886;46.614;14.276;2023-04-01T14:07:18;1.25;;;1.15;;
12314;SDS011;23886;46.614;14.276;2023-04-01T14:10:04;1.45;;;1.23;;
12314;SDS011;23886;46.614;14.276;2023-04-01T14:12:36;1.63;;;1.05;;
12314;SDS011;23886;46.614;14.276;2023-04-01T14:15:19;0.73;;;0.73;;
12314;SDS011;23886;46.614;14.276;2023-04-01T14:18:05;0.82;;;0.70;;
12314;SDS011;23886;46.614;14.276;2023-04-01T14:20:49;0.60;;;0.60;;
12314;SDS011;23886;46.614;14.276;2023-04-01T14:23:25;1.10;;;0.80;;
12314;SDS011;23886;46.614;14.276;2023-04-01T14:26:09;0.60;;;0.60;;
12314;SDS011;23886;46.614;14.276;2023-04-01T14:29:09;0.77;;;0.63;;
12314;SDS011;23886;46.614;14.276;2023-04-01T14:31:55;1.37;;;0.70;;
12314;SDS011;23886;46.614;14.276;2023-04-01T14:34:34;2.77;;;1.90;;
12314;SDS011;23886;46.614;14.276;2023-04-01T14:37:25;1.00;;;0.90;;
12314;SDS011;23886;46.614;14.276;2023-04-01T14:40:26;1.03;;;0.87;;
12314;SDS011;23886;46.614;14.276;2023-04-01T14:46:05;0.60;;;0.60;;
12314;SDS011;23886;46.614;14.276;2023-04-01T14:48:50;0.40;;;0.40;;
12314;SDS011;23886;46.614;14.276;2023-04-01T14:51:21;0.50;;;0.50;;
12314;SDS011;23886;46.614;14.276;2023-04-01T14:53:59;1.10;;;0.90;;
12314;SDS011;23886;46.614;14.276;2023-04-01T14:56:37;1.03;;;0.90;;
12314;SDS011;23886;46.614;14.276;2023-04-01T14:59:07;0.67;;;0.67;;
12314;SDS011;23886;46.614;14.276;2023-04-01T15:01:40;1.70;;;0.70;;
12314;SDS011;23886;46.614;14.276;2023-04-01T15:07:07;0.93;;;0.90;;
12314;SDS011;23886;46.614;14.276;2023-04-01T15:09:48;0.67;;;0.67;;
12314;SDS011;23886;46.614;14.276;2023-04-01T15:12:24;1.30;;;1.20;;
12314;SDS011;23886;46.614;14.276;2023-04-01T15:15:18;1.00;;;0.90;;
12314;SDS011;23886;46.614;14.276;2023-04-01T15:17:58;0.90;;;0.80;;
12314;SDS011;23886;46.614;14.276;2023-04-01T15:20:43;1.03;;;1.00;;
12314;SDS011;23886;46.614;14.276;2023-04-01T15:23:28;1.30;;;1.20;;
12314;SDS011;23886;46.614;14.276;2023-04-01T15:26:11;1.80;;;1.60;;
12314;SDS011;23886;46.614;14.276;2023-04-01T15:28:47;2.03;;;1.20;;
12314;SDS011;23886;46.614;14.276;2023-04-01T15:31:22;0.60;;;0.60;;
12314;SDS011;23886;46.614;14.276;2023-04-01T15:34:02;1.73;;;1.10;;
12314;SDS011;23886;46.614;14.276;2023-04-01T15:36:53;0.80;;;0.60;;
12314;SDS011;23886;46.614;14.276;2023-04-01T15:39:28;0.63;;;0.63;;
12314;SDS011;23886;46.614;14.276;2023-04-01T15:42:15;0.80;;;0.70;;
12314;SDS011;23886;46.614;14.276;2023-04-01T15:44:53;1.23;;;1.13;;
12314;SDS011;23886;46.614;14.276;2023-04-01T15:47:34;1.80;;;1.40;;
12314;SDS011;23886;46.614;14.276;2023-04-01T15:50:24;2.77;;;1.50;;
12314;SDS011;23886;46.614;14.276;2023-04-01T15:53:03;1.40;;;1.30;;
12314;SDS011;23886;46.614;14.276;2023-04-01T15:55:41;3.83;;;1.40;;
12314;SDS011;23886;46.614;14.276;2023-04-01T15:58:25;1.15;;;0.90;;
12314;SDS011;23886;46.614;14.276;2023-04-01T16:01:05;1.48;;;1.30;;
12314;SDS011;23886;46.614;14.276;2023-04-01T16:03:43;1.33;;;1.23;;
12314;SDS011;23886;46.614;14.276;2023-04-01T16:06:25;2.15;;;1.00;;
12314;SDS011;23886;46.614;14.276;2023-04-01T16:09:22;1.25;;;1.08;;
12314;SDS011;23886;46.614;14.276;2023-04-01T16:12:01;1.33;;;1.20;;
12314;SDS011;23886;46.614;14.276;2023-04-01T16:14:37;1.17;;;0.95;;
12314;SDS011;23886;46.614;14.276;2023-04-01T16:20:12;1.17;;;1.08;;
12314;SDS011;23886;46.614;14.276;2023-04-01T16:22:48;2.28;;;1.98;;
12314;SDS011;23886;46.614;14.276;2023-04-01T16:25:32;1.15;;;1.02;;
12314;SDS011;23886;46.614;14.276;2023-04-01T16:28:13;2.30;;;0.98;;
12314;SDS011;23886;46.614;14.276;2023-04-01T16:30:47;1.13;;;0.93;;
12314;SDS011;23886;46.614;14.276;2023-04-01T16:33:21;0.70;;;0.70;;
12314;SDS011;23886;46.614;14.276;2023-04-01T16:35:55;1.05;;;0.95;;
12314;SDS011;23886;46.614;14.276;2023-04-01T16:38:33;1.57;;;1.30;;
12314;SDS011;23886;46.614;14.276;2023-04-01T16:41:10;1.10;;;1.00;;
12314;SDS011;23886;46.614;14.276;2023-04-01T16:43:41;0.70;;;0.70;;
12314;SDS011;23886;46.614;14.276;2023-04-01T16:49:07;0.77;;;0.77;;
12314;SDS011;23886;46.614;14.276;2023-04-01T16:52:00;1.50;;;1.40;;
12314;SDS011;23886;46.614;14.276;2023-04-01T16:54:42;0.93;;;0.77;;
12314;SDS011;23886;46.614;14.276;2023-04-01T16:57:21;1.73;;;1.50;;
12314;SDS011;23886;46.614;14.276;2023-04-01T16:59:54;1.33;;;1.23;;
12314;SDS011;23886;46.614;14.276;2023-04-01T17:02:27;0.90;;;0.77;;
12314;SDS011;23886;46.614;14.276;2023-04-01T17:04:58;1.70;;;0.80;;
12314;SDS011;23886;46.614;14.276;2023-04-01T17:07:33;0.93;;;0.80;;
12314;SDS011;23886;46.614;14.276;2023-04-01T17:13:28;0.77;;;0.77;;